SHMÚ 65 rokov / 1954-2019 - Ďakujeme našim partnerom


SHMÚ vydal meteorologické výstrahy na Poľadovica Zobraziť výstrahy

TAF

Letisková predpoveď TAF

Informácie o správe TAF

05.12.2019 - 05:00 UTC (Včera)

TAF AMD LZKZ 050853Z 0508/0606 18005KT 1400 BR BKN003 OVC012
    TEMPO 0508/0511 0400 -SG FZFG OVC002
    PROB40 TEMPO 0511/0518 21010KT 4000 BR SCT004 BKN018
    TEMPO 0518/0606 0800 FZFG BKN002 OVC004=

05.12.2019 - 08:00 UTC (Včera)

TAF LZSL 050800Z 0509/0518 VRB02KT 7000 OVC008
    TEMPO 0509/0512 4000 BR OVC004
    PROB30 TEMPO 0512/0516 SCT010 BKN015
    TEMPO 0516/0518 2500 BR OVC003=
TAF LZPP 050800Z 0509/0518 15013KT 9999 OVC012
    TEMPO 0509/0512 BKN009
    PROB30 TEMPO 0515/0518 4000 BR
    BECMG 0515/0517 OVC006=
TAF LZZI 050800Z 0509/0518 26006KT 9999 FEW015=

skok na menu ↑


skok na začiatok stránky ↑